createdAt,value
2023-03-15T00:02:23.641Z,21.63
2023-03-15T00:04:52.005Z,21.55
2023-03-15T00:07:25.799Z,22.40
2023-03-15T00:09:54.313Z,21.38
2023-03-15T00:12:25.722Z,21.92
2023-03-15T00:14:53.966Z,21.38
2023-03-15T00:17:22.895Z,21.33
2023-03-15T00:19:50.716Z,20.73
2023-03-15T00:22:18.353Z,23.52
2023-03-15T00:24:46.899Z,21.80
2023-03-15T00:27:14.428Z,20.77
2023-03-15T00:29:42.447Z,22.08
2023-03-15T00:32:10.975Z,22.27
2023-03-15T00:34:40.261Z,24.00
2023-03-15T00:37:08.171Z,22.98
2023-03-15T00:39:37.926Z,23.65
2023-03-15T00:42:09.125Z,25.23
2023-03-15T00:44:36.880Z,24.23
2023-03-15T00:47:05.383Z,24.23
2023-03-15T00:49:33.265Z,27.80
2023-03-15T00:52:03.094Z,26.27
2023-03-15T00:54:33.551Z,25.05
2023-03-15T00:57:02.325Z,23.58
2023-03-15T00:59:35.341Z,24.73
2023-03-15T01:02:03.254Z,23.67
2023-03-15T01:04:32.707Z,26.20
2023-03-15T01:07:00.967Z,23.88
2023-03-15T01:09:28.827Z,28.65
2023-03-15T01:11:56.831Z,27.67
2023-03-15T01:14:25.057Z,26.90
2023-03-15T01:16:53.030Z,25.15
2023-03-15T01:19:21.058Z,25.75
2023-03-15T01:21:48.746Z,27.10
2023-03-15T01:24:18.488Z,26.30
2023-03-15T01:26:46.617Z,24.70
2023-03-15T01:29:15.263Z,26.25
2023-03-15T01:31:43.716Z,26.63
2023-03-15T01:34:11.548Z,27.83
2023-03-15T01:36:39.622Z,25.70
2023-03-15T01:39:07.398Z,24.25
2023-03-15T01:41:42.238Z,25.80
2023-03-15T01:44:18.630Z,24.90
2023-03-15T01:46:48.118Z,23.30
2023-03-15T01:49:27.275Z,25.52
2023-03-15T01:52:18.746Z,24.48
2023-03-15T01:54:57.455Z,24.15
2023-03-15T01:57:30.769Z,24.25
2023-03-15T02:00:12.229Z,22.77
2023-03-15T02:03:14.558Z,24.30
2023-03-15T02:05:49.515Z,23.13
2023-03-15T02:08:32.926Z,21.77
2023-03-15T02:11:04.357Z,20.83
2023-03-15T02:13:34.941Z,22.20
2023-03-15T02:16:07.964Z,19.52
2023-03-15T02:18:45.464Z,21.35
2023-03-15T02:21:15.966Z,20.02
2023-03-15T02:23:46.508Z,18.52
2023-03-15T02:26:21.923Z,19.38
2023-03-15T02:28:50.674Z,20.55
2023-03-15T02:31:21.327Z,20.60
2023-03-15T02:33:52.846Z,20.15
2023-03-15T02:36:28.514Z,21.27
2023-03-15T02:38:56.869Z,19.58
2023-03-15T02:41:39.035Z,20.10
2023-03-15T02:44:33.954Z,21.00
2023-03-15T02:47:06.282Z,20.33
2023-03-15T02:49:40.330Z,19.15
2023-03-15T02:52:10.040Z,18.88
2023-03-15T02:54:39.388Z,17.80
2023-03-15T02:57:11.187Z,18.33
2023-03-15T02:59:39.787Z,17.83
2023-03-15T03:02:08.009Z,16.10
2023-03-15T03:04:35.609Z,17.83
2023-03-15T03:07:03.908Z,18.27
2023-03-15T03:09:43.269Z,19.13
2023-03-15T03:12:12.690Z,18.63
2023-03-15T03:14:43.357Z,18.50
2023-03-15T03:17:15.244Z,16.20
2023-03-15T03:19:43.917Z,18.98
2023-03-15T03:22:13.749Z,16.98
2023-03-15T03:24:46.013Z,18.35
2023-03-15T03:27:16.123Z,17.70
2023-03-15T03:29:46.692Z,16.75
2023-03-15T03:32:15.680Z,17.73
2023-03-15T03:34:48.637Z,17.10
2023-03-15T03:37:21.634Z,17.15
2023-03-15T03:39:55.668Z,18.77
2023-03-15T03:42:24.105Z,17.05
2023-03-15T03:44:54.518Z,18.63
2023-03-15T03:47:24.195Z,18.85
2023-03-15T03:49:51.999Z,19.67
2023-03-15T03:52:19.686Z,18.15
2023-03-15T03:54:48.384Z,18.33
2023-03-15T03:57:17.789Z,19.45
2023-03-15T03:59:45.520Z,16.73
2023-03-15T04:02:13.199Z,17.30
2023-03-15T04:04:45.679Z,18.25
2023-03-15T04:07:18.672Z,17.90
2023-03-15T04:09:46.693Z,16.95
2023-03-15T04:12:14.938Z,17.13
2023-03-15T04:14:46.416Z,17.10
2023-03-15T04:17:15.779Z,17.23
2023-03-15T04:19:47.011Z,16.67
2023-03-15T04:22:17.888Z,17.83
2023-03-15T04:25:02.132Z,17.73
2023-03-15T04:27:41.347Z,17.15
2023-03-15T04:30:30.936Z,18.33
2023-03-15T04:33:10.945Z,17.75
2023-03-15T04:35:59.232Z,21.80
2023-03-15T04:38:32.364Z,18.00
2023-03-15T04:41:11.168Z,17.80
2023-03-15T04:43:57.147Z,15.63
2023-03-15T04:46:36.219Z,14.75
2023-03-15T04:49:12.140Z,15.35
2023-03-15T04:52:12.716Z,16.08
2023-03-15T04:54:41.018Z,15.70
2023-03-15T04:57:26.552Z,16.77
2023-03-15T05:00:08.186Z,16.20
2023-03-15T05:02:47.584Z,16.10
2023-03-15T05:05:26.093Z,13.13
2023-03-15T05:07:57.375Z,11.57
2023-03-15T05:10:48.483Z,9.30
2023-03-15T05:13:39.031Z,10.57
2023-03-15T05:16:36.601Z,10.93
2023-03-15T05:19:21.885Z,9.73
2023-03-15T05:22:08.520Z,9.63
2023-03-15T05:24:58.779Z,10.45
2023-03-15T05:27:42.038Z,9.43
2023-03-15T05:30:24.523Z,9.80
2023-03-15T05:33:05.214Z,7.78
2023-03-15T05:35:55.631Z,8.35
2023-03-15T05:38:49.651Z,8.55
2023-03-15T05:41:38.037Z,10.30
2023-03-15T05:44:28.363Z,12.45
2023-03-15T05:47:14.517Z,11.85
2023-03-15T05:50:08.285Z,14.27
2023-03-15T05:52:57.975Z,14.18
2023-03-15T05:55:55.478Z,14.02
2023-03-15T05:58:41.451Z,13.95
2023-03-15T06:01:32.767Z,15.65
2023-03-15T06:04:15.161Z,15.30
2023-03-15T06:06:43.339Z,16.30
2023-03-15T06:09:12.245Z,16.88
2023-03-15T06:11:40.587Z,15.73
2023-03-15T06:14:12.032Z,15.57
2023-03-15T06:16:48.505Z,15.23
2023-03-15T06:19:17.182Z,23.75
2023-03-15T06:21:45.706Z,18.85
2023-03-15T06:24:21.520Z,29.20
2023-03-15T06:26:49.431Z,24.55
2023-03-15T06:29:18.304Z,24.65
2023-03-15T06:31:53.090Z,30.98
2023-03-15T06:34:21.614Z,25.60
2023-03-15T06:36:52.635Z,26.42
2023-03-15T06:39:21.165Z,28.15
2023-03-15T06:41:49.440Z,19.73
2023-03-15T06:44:22.155Z,20.00
2023-03-15T06:46:55.394Z,16.42
2023-03-15T06:49:23.727Z,17.90
2023-03-15T06:51:52.357Z,15.80
2023-03-15T06:54:20.309Z,14.35
2023-03-15T06:56:48.790Z,14.15
2023-03-15T06:59:17.455Z,13.38
2023-03-15T07:01:45.043Z,13.95
2023-03-15T07:04:12.795Z,14.40
2023-03-15T07:06:40.498Z,13.05
2023-03-15T07:09:08.718Z,13.82
2023-03-15T07:11:37.237Z,11.95
2023-03-15T07:14:04.800Z,12.88
2023-03-15T07:16:32.869Z,13.18
2023-03-15T07:19:01.870Z,13.55
2023-03-15T07:21:29.572Z,12.80
2023-03-15T07:23:58.123Z,12.55
2023-03-15T07:26:26.592Z,12.90
2023-03-15T07:28:54.624Z,12.63
2023-03-15T07:31:22.439Z,14.65
2023-03-15T07:33:50.116Z,13.82
2023-03-15T07:36:18.014Z,12.38
2023-03-15T07:38:45.639Z,13.60
2023-03-15T07:41:13.699Z,13.73
2023-03-15T07:43:50.334Z,12.27
2023-03-15T07:46:20.037Z,12.98
2023-03-15T07:48:47.907Z,14.10
2023-03-15T07:51:16.626Z,12.85
2023-03-15T07:53:44.720Z,14.73
2023-03-15T07:56:12.956Z,12.60
2023-03-15T07:58:41.429Z,12.57
2023-03-15T08:01:09.431Z,10.85
2023-03-15T08:03:37.835Z,11.23
2023-03-15T08:06:05.836Z,15.50
2023-03-15T08:08:34.083Z,15.75
2023-03-15T08:11:03.209Z,15.80
2023-03-15T08:13:31.839Z,14.40
2023-03-15T08:16:00.015Z,14.35
2023-03-15T08:18:31.205Z,15.30
2023-03-15T08:20:59.281Z,15.02
2023-03-15T08:23:27.136Z,14.25
2023-03-15T08:25:55.432Z,11.68
2023-03-15T08:28:23.380Z,13.02
2023-03-15T08:30:51.398Z,13.38
2023-03-15T08:33:19.079Z,14.63
2023-03-15T08:35:52.076Z,12.85
2023-03-15T08:38:19.806Z,13.02
2023-03-15T08:40:47.633Z,14.93
2023-03-15T08:43:15.771Z,12.88
2023-03-15T08:46:00.077Z,13.48
2023-03-15T08:48:28.486Z,14.38
2023-03-15T08:50:57.943Z,12.65
2023-03-15T08:53:26.107Z,13.77
2023-03-15T08:55:54.091Z,13.15
2023-03-15T08:58:21.971Z,13.93
2023-03-15T09:00:51.537Z,13.65
2023-03-15T09:03:22.626Z,14.32
2023-03-15T09:05:55.784Z,12.30
2023-03-15T09:08:25.268Z,11.32
2023-03-15T09:10:57.085Z,10.23
2023-03-15T09:13:26.020Z,8.52
2023-03-15T09:15:55.910Z,6.75
2023-03-15T09:18:25.078Z,8.48
2023-03-15T09:20:52.928Z,7.35
2023-03-15T09:23:20.948Z,9.15
2023-03-15T09:25:57.796Z,8.63
2023-03-15T09:28:26.639Z,10.05
2023-03-15T09:30:54.910Z,8.27
2023-03-15T09:33:26.163Z,9.65
2023-03-15T09:35:54.830Z,8.40
2023-03-15T09:38:24.214Z,8.45
2023-03-15T09:40:59.999Z,8.73
2023-03-15T09:43:49.322Z,8.10
2023-03-15T09:46:55.417Z,8.00
2023-03-15T09:49:26.215Z,7.43
2023-03-15T09:52:24.678Z,4.05
2023-03-15T09:55:01.017Z,2.55
2023-03-15T09:58:02.021Z,1.20
2023-03-15T10:00:52.810Z,1.15
2023-03-15T10:03:29.230Z,0.88
2023-03-15T10:06:05.651Z,1.67
2023-03-15T10:08:34.441Z,0.60
2023-03-15T10:11:45.536Z,0.70
2023-03-15T10:14:47.039Z,1.10
2023-03-15T10:17:24.561Z,0.50
2023-03-15T10:19:59.110Z,0.60
2023-03-15T10:22:46.965Z,0.57
2023-03-15T10:25:25.709Z,0.80
2023-03-15T10:28:31.275Z,0.43
2023-03-15T10:31:16.278Z,0.40
2023-03-15T10:33:48.622Z,0.30
2023-03-15T10:36:17.963Z,0.40
2023-03-15T10:38:48.432Z,0.60
2023-03-15T10:41:38.023Z,0.60
2023-03-15T10:44:16.599Z,2.30
2023-03-15T10:47:22.547Z,3.25
2023-03-15T10:49:57.333Z,2.83
2023-03-15T10:52:32.043Z,3.70
2023-03-15T10:55:21.997Z,4.03
2023-03-15T10:57:56.612Z,2.72
2023-03-15T11:00:31.951Z,4.40
2023-03-15T11:03:02.629Z,4.63
2023-03-15T11:05:41.677Z,4.57
2023-03-15T11:08:16.009Z,4.32
2023-03-15T11:10:45.410Z,5.43
2023-03-15T11:13:20.738Z,6.20
2023-03-15T11:15:53.141Z,2.05
2023-03-15T11:18:29.603Z,1.70
2023-03-15T11:20:58.723Z,1.65
2023-03-15T11:23:35.302Z,1.40
2023-03-15T11:26:04.133Z,1.33
2023-03-15T11:28:35.801Z,0.75
2023-03-15T11:31:05.494Z,1.00
2023-03-15T11:33:58.582Z,0.70
2023-03-15T11:36:32.230Z,0.60
2023-03-15T11:41:51.328Z,0.80
2023-03-15T11:44:22.491Z,0.82
2023-03-15T11:46:57.556Z,0.60
2023-03-15T11:49:38.588Z,0.63
2023-03-15T11:52:07.523Z,0.60
2023-03-15T11:54:35.674Z,0.38
2023-03-15T11:57:29.421Z,0.55
2023-03-15T12:00:15.874Z,0.52
2023-03-15T12:02:55.707Z,9.88
2023-03-15T12:05:42.101Z,1.10
2023-03-15T12:08:44.874Z,0.82
2023-03-15T12:11:24.840Z,11.32
2023-03-15T12:13:59.017Z,0.60
2023-03-15T12:16:34.923Z,0.63
2023-03-15T12:19:19.412Z,0.80
2023-03-15T12:21:50.671Z,0.60
2023-03-15T12:24:31.157Z,0.75
2023-03-15T12:27:02.805Z,0.90
2023-03-15T12:29:36.198Z,0.70
2023-03-15T12:32:03.737Z,0.50
2023-03-15T12:34:37.600Z,0.70
2023-03-15T12:37:09.658Z,0.70
2023-03-15T12:39:41.998Z,0.35
2023-03-15T12:42:28.482Z,0.38
2023-03-15T12:45:16.757Z,0.65
2023-03-15T12:48:12.620Z,0.85
2023-03-15T12:50:47.087Z,0.90
2023-03-15T12:53:22.630Z,0.68
2023-03-15T12:55:54.121Z,0.70
2023-03-15T12:58:34.918Z,1.60
2023-03-15T13:01:06.817Z,0.68
2023-03-15T13:03:36.622Z,0.85
2023-03-15T13:06:13.986Z,0.85
2023-03-15T13:09:07.400Z,0.65
2023-03-15T13:12:36.691Z,0.60
2023-03-15T13:15:33.226Z,0.82
2023-03-15T13:18:18.048Z,0.55
2023-03-15T13:21:06.572Z,1.00
2023-03-15T13:23:35.064Z,1.00
2023-03-15T13:26:21.982Z,0.85
2023-03-15T13:28:52.272Z,0.90
2023-03-15T13:31:22.184Z,0.82
2023-03-15T13:34:06.414Z,0.57
2023-03-15T13:36:43.293Z,1.30
2023-03-15T13:39:24.994Z,1.10
2023-03-15T13:42:17.955Z,1.02
2023-03-15T13:44:45.702Z,0.90
2023-03-15T13:47:22.070Z,0.80
2023-03-15T13:49:52.986Z,0.90
2023-03-15T13:52:21.126Z,0.55
2023-03-15T13:54:49.896Z,0.75
2023-03-15T13:57:20.576Z,0.60
2023-03-15T13:59:57.673Z,1.05
2023-03-15T14:02:36.149Z,1.13
2023-03-15T14:05:11.414Z,1.00
2023-03-15T14:07:45.442Z,1.00
2023-03-15T14:10:18.822Z,0.95
2023-03-15T14:15:16.221Z,1.00
2023-03-15T14:17:58.882Z,1.17
2023-03-15T14:20:33.535Z,0.80
2023-03-15T14:23:04.518Z,1.20
2023-03-15T14:25:35.352Z,1.52
2023-03-15T14:28:05.590Z,0.88
2023-03-15T14:30:37.671Z,1.60
2023-03-15T14:33:09.598Z,1.13
2023-03-15T14:35:38.154Z,0.70
2023-03-15T14:38:21.321Z,0.80
2023-03-15T14:40:51.809Z,1.13
2023-03-15T14:43:20.291Z,1.20
2023-03-15T14:45:49.799Z,0.90
2023-03-15T14:48:32.066Z,1.20
2023-03-15T14:51:00.648Z,1.50
2023-03-15T14:53:35.006Z,1.60
2023-03-15T14:56:04.744Z,1.52
2023-03-15T14:58:32.681Z,1.50
2023-03-15T15:01:02.920Z,1.30
2023-03-15T15:03:33.379Z,1.80
2023-03-15T15:06:02.995Z,1.38
2023-03-15T15:08:32.482Z,1.60
2023-03-15T15:11:00.688Z,1.70
2023-03-15T15:13:30.435Z,1.67
2023-03-15T15:15:58.779Z,1.42
2023-03-15T15:18:29.300Z,1.27
2023-03-15T15:21:00.651Z,1.58
2023-03-15T15:23:31.550Z,0.93
2023-03-15T15:26:04.695Z,1.13
2023-03-15T15:28:36.914Z,1.27
2023-03-15T15:31:07.215Z,1.40
2023-03-15T15:33:35.617Z,1.45
2023-03-15T15:36:04.660Z,1.67
2023-03-15T15:38:39.068Z,1.52
2023-03-15T15:41:13.307Z,1.58
2023-03-15T15:43:42.054Z,1.63
2023-03-15T15:46:12.148Z,1.58
2023-03-15T15:48:42.039Z,1.83
2023-03-15T15:51:29.360Z,1.60
2023-03-15T15:54:00.249Z,1.40
2023-03-15T15:56:56.027Z,2.00
2023-03-15T15:59:25.840Z,1.55
2023-03-15T16:02:02.832Z,2.00
2023-03-15T16:04:32.651Z,1.63
2023-03-15T16:07:02.616Z,2.17
2023-03-15T16:09:35.841Z,2.05
2023-03-15T16:12:13.588Z,1.88
2023-03-15T16:14:42.182Z,2.20
2023-03-15T16:17:31.379Z,2.35
2023-03-15T16:19:59.077Z,2.42
2023-03-15T16:22:29.169Z,3.03
2023-03-15T16:24:58.096Z,2.22
2023-03-15T16:27:28.189Z,2.83
2023-03-15T16:29:56.437Z,2.30
2023-03-15T16:32:37.227Z,2.03
2023-03-15T16:35:16.270Z,2.95
2023-03-15T16:37:45.610Z,1.92
2023-03-15T16:40:26.637Z,3.38
2023-03-15T16:42:55.201Z,2.72
2023-03-15T16:45:24.352Z,2.33
2023-03-15T16:47:52.980Z,2.40
2023-03-15T16:50:20.958Z,2.78
2023-03-15T16:52:53.574Z,2.72
2023-03-15T16:55:28.604Z,3.33
2023-03-15T16:57:57.564Z,3.00
2023-03-15T17:00:26.102Z,2.83
2023-03-15T17:02:54.912Z,2.58
2023-03-15T17:05:24.808Z,2.45
2023-03-15T17:07:54.204Z,2.88
2023-03-15T17:10:25.640Z,2.50
2023-03-15T17:12:55.223Z,3.78
2023-03-15T17:15:26.333Z,3.20
2023-03-15T17:17:57.746Z,3.28
2023-03-15T17:20:29.877Z,2.90
2023-03-15T17:23:04.165Z,3.03
2023-03-15T17:25:33.048Z,3.13
2023-03-15T17:28:01.070Z,2.90
2023-03-15T17:30:32.143Z,3.05
2023-03-15T17:33:00.777Z,3.00
2023-03-15T17:35:33.748Z,2.72
2023-03-15T17:38:04.445Z,3.22
2023-03-15T17:40:36.440Z,2.67
2023-03-15T17:43:05.008Z,2.92
2023-03-15T17:45:34.816Z,2.75
2023-03-15T17:48:02.558Z,3.22
2023-03-15T17:50:33.693Z,2.92
2023-03-15T17:53:08.247Z,3.40
2023-03-15T17:55:36.495Z,3.17
2023-03-15T17:58:11.529Z,3.53
2023-03-15T18:00:39.235Z,3.50
2023-03-15T18:03:07.800Z,3.25
2023-03-15T18:05:35.505Z,3.78
2023-03-15T18:08:07.406Z,3.33
2023-03-15T18:10:38.186Z,4.22
2023-03-15T18:13:05.853Z,4.47
2023-03-15T18:15:34.063Z,3.47
2023-03-15T18:18:04.091Z,3.33
2023-03-15T18:20:33.983Z,3.42
2023-03-15T18:23:02.236Z,3.80
2023-03-15T18:25:33.177Z,3.92
2023-03-15T18:28:01.137Z,4.18
2023-03-15T18:30:31.565Z,4.50
2023-03-15T18:33:00.206Z,3.40
2023-03-15T18:35:31.707Z,4.47
2023-03-15T18:37:59.591Z,4.35
2023-03-15T18:40:30.475Z,4.15
2023-03-15T18:42:58.763Z,3.92
2023-03-15T18:45:30.120Z,4.28
2023-03-15T18:48:02.236Z,5.13
2023-03-15T18:50:30.976Z,5.07
2023-03-15T18:52:58.606Z,4.72
2023-03-15T18:55:26.848Z,5.93
2023-03-15T18:57:55.509Z,8.23
2023-03-15T19:00:29.857Z,7.50
2023-03-15T19:03:00.798Z,6.43
2023-03-15T19:05:30.810Z,6.15
2023-03-15T19:07:58.987Z,6.13
2023-03-15T19:10:27.569Z,6.68
2023-03-15T19:12:56.206Z,8.23
2023-03-15T19:15:24.158Z,6.55
2023-03-15T19:17:56.667Z,6.30
2023-03-15T19:20:24.662Z,7.85
2023-03-15T19:22:53.156Z,8.55
2023-03-15T19:25:22.089Z,7.85
2023-03-15T19:27:50.295Z,6.68
2023-03-15T19:30:21.212Z,6.43
2023-03-15T19:32:50.686Z,6.70
2023-03-15T19:35:20.168Z,7.47
2023-03-15T19:37:49.705Z,7.32
2023-03-15T19:40:20.128Z,8.07
2023-03-15T19:42:51.227Z,7.63
2023-03-15T19:45:19.495Z,7.53
2023-03-15T19:47:47.786Z,7.75
2023-03-15T19:50:15.792Z,10.00
2023-03-15T19:52:48.039Z,10.20
2023-03-15T19:55:18.852Z,8.88
2023-03-15T19:57:47.067Z,10.25
2023-03-15T20:00:17.210Z,8.93
2023-03-15T20:02:46.641Z,8.38
2023-03-15T20:05:18.017Z,7.47
2023-03-15T20:07:47.397Z,13.52
2023-03-15T20:10:15.617Z,11.48
2023-03-15T20:12:45.547Z,8.85
2023-03-15T20:15:16.440Z,8.45
2023-03-15T20:17:45.230Z,9.70
2023-03-15T20:20:14.686Z,7.65
2023-03-15T20:22:44.928Z,8.55
2023-03-15T20:25:14.942Z,7.60
2023-03-15T20:27:45.437Z,8.07
2023-03-15T20:30:14.872Z,7.90
2023-03-15T20:32:43.315Z,7.15
2023-03-15T20:35:12.277Z,7.57
2023-03-15T20:37:41.737Z,7.00
2023-03-15T20:40:14.616Z,8.38
2023-03-15T20:42:43.607Z,7.15
2023-03-15T20:45:14.749Z,6.90
2023-03-15T20:47:44.890Z,8.25
2023-03-15T20:50:14.513Z,6.93
2023-03-15T20:52:44.492Z,6.38
2023-03-15T20:55:15.117Z,6.93
2023-03-15T20:57:43.889Z,6.85
2023-03-15T21:00:19.344Z,6.07
2023-03-15T21:02:48.707Z,5.75
2023-03-15T21:05:18.126Z,7.25
2023-03-15T21:07:47.909Z,6.47
2023-03-15T21:10:17.494Z,7.13
2023-03-15T21:12:47.370Z,7.20
2023-03-15T21:15:18.065Z,7.72
2023-03-15T21:17:54.942Z,10.88
2023-03-15T21:20:22.997Z,7.85
2023-03-15T21:22:51.534Z,7.50
2023-03-15T21:25:19.819Z,6.90
2023-03-15T21:27:48.106Z,9.25
2023-03-15T21:30:16.037Z,8.23
2023-03-15T21:32:44.912Z,6.38
2023-03-15T21:35:14.091Z,5.53
2023-03-15T21:37:41.795Z,7.25
2023-03-15T21:40:12.902Z,7.90
2023-03-15T21:42:43.732Z,5.45
2023-03-15T21:45:12.519Z,5.97
2023-03-15T21:47:41.189Z,6.05
2023-03-15T21:50:11.354Z,4.70
2023-03-15T21:52:39.815Z,4.82
2023-03-15T21:55:09.429Z,4.65
2023-03-15T21:57:37.665Z,6.88
2023-03-15T22:00:11.662Z,6.43
2023-03-15T22:02:40.123Z,7.60
2023-03-15T22:05:08.972Z,4.90
2023-03-15T22:07:36.944Z,4.53
2023-03-15T22:10:06.011Z,4.65
2023-03-15T22:12:34.605Z,8.43
2023-03-15T22:15:06.341Z,4.60
2023-03-15T22:17:35.679Z,3.38
2023-03-15T22:20:09.312Z,3.25
2023-03-15T22:22:36.980Z,3.72
2023-03-15T22:25:04.957Z,5.40
2023-03-15T22:27:32.522Z,5.03
2023-03-15T22:30:00.782Z,4.50
2023-03-15T22:32:29.471Z,2.60
2023-03-15T22:34:57.364Z,3.78
2023-03-15T22:37:24.946Z,3.08
2023-03-15T22:39:52.598Z,3.85
2023-03-15T22:42:20.814Z,2.72
2023-03-15T22:44:48.983Z,3.22
2023-03-15T22:47:18.078Z,2.78
2023-03-15T22:49:45.724Z,3.70
2023-03-15T22:52:13.583Z,4.13
2023-03-15T22:54:43.952Z,4.10
2023-03-15T22:57:11.670Z,3.83
2023-03-15T22:59:39.498Z,4.38
2023-03-15T23:02:08.001Z,3.50
2023-03-15T23:04:36.292Z,6.03
2023-03-15T23:07:04.223Z,6.13
2023-03-15T23:09:41.669Z,5.72
2023-03-15T23:12:36.193Z,3.53
2023-03-15T23:15:05.417Z,6.82
2023-03-15T23:17:33.466Z,4.20
2023-03-15T23:20:01.482Z,6.38
2023-03-15T23:22:29.956Z,4.55
2023-03-15T23:24:58.728Z,4.13
2023-03-15T23:27:26.920Z,4.22
2023-03-15T23:29:55.479Z,3.83
2023-03-15T23:32:25.203Z,2.97
2023-03-15T23:34:53.886Z,3.42
2023-03-15T23:37:24.401Z,3.20
2023-03-15T23:39:53.494Z,2.30
2023-03-15T23:42:25.992Z,2.42
2023-03-15T23:44:55.644Z,4.45
2023-03-15T23:47:26.036Z,6.43
2023-03-15T23:49:54.173Z,1.83
2023-03-15T23:52:25.425Z,4.78
2023-03-15T23:54:54.076Z,1.70
2023-03-15T23:57:21.830Z,3.72
2023-03-15T23:59:50.170Z,1.88
